Terminal Aerodrome Forecast
Issued by NWS Sterling, VA

Current Version | Previous Version | Graphics & Text | Print | Product List | Glossary On
Versions: 1 2 3 4 5 6 7 8 9 10 11 12 13 14 15 16 17 18 19 20 21 22 23
401
FTUS41 KLWX 100037 AAA
TAFIAD
TAF AMD
KIAD 100037Z 1001/1106 VRB04KT 6SM BR SCT008 BKN025 OVC050
     FM100130 VRB03KT P6SM BKN025 OVC050
     FM100400 28007KT P6SM BKN080
     FM101400 28013G21KT P6SM FEW250
     FM102200 25009KT P6SM SCT090
     FM110200 24005KT P6SM BKN080=

USA.gov is the U.S. government's official web portal to all federal, state and local government web resources and services.